createdAt,value
2019-03-26T00:02:23.600Z,91.80
2019-03-26T00:04:51.949Z,91.80
2019-03-26T00:07:20.206Z,92.00
2019-03-26T00:09:49.728Z,92.20
2019-03-26T00:12:18.132Z,92.20
2019-03-26T00:14:46.448Z,92.00
2019-03-26T00:17:14.617Z,92.00
2019-03-26T00:19:42.898Z,91.80
2019-03-26T00:22:17.209Z,91.80
2019-03-26T00:24:45.776Z,91.90
2019-03-26T00:27:14.100Z,92.00
2019-03-26T00:29:42.589Z,91.80
2019-03-26T00:32:10.794Z,91.80
2019-03-26T00:34:39.201Z,91.90
2019-03-26T00:37:07.924Z,92.00
2019-03-26T00:39:36.211Z,91.80
2019-03-26T00:42:04.779Z,91.70
2019-03-26T00:44:33.125Z,91.70
2019-03-26T00:47:01.466Z,92.00
2019-03-26T00:49:29.771Z,91.80
2019-03-26T00:51:58.096Z,91.70
2019-03-26T00:54:26.382Z,91.70
2019-03-26T00:56:54.646Z,91.70
2019-03-26T00:59:23.068Z,91.70
2019-03-26T01:01:51.290Z,91.80
2019-03-26T01:04:31.802Z,91.50
2019-03-26T01:06:50.007Z,91.60
2019-03-26T01:09:18.209Z,91.90
2019-03-26T01:11:46.527Z,91.90
2019-03-26T01:14:14.929Z,91.90
2019-03-26T01:16:43.262Z,92.00
2019-03-26T01:19:11.548Z,92.10
2019-03-26T01:21:39.720Z,91.80
2019-03-26T01:24:08.040Z,91.70
2019-03-26T01:26:36.385Z,91.60
2019-03-26T01:29:04.777Z,91.50
2019-03-26T01:31:33.120Z,91.70
2019-03-26T01:34:01.526Z,91.80
2019-03-26T01:36:29.858Z,91.80
2019-03-26T01:38:58.287Z,91.80
2019-03-26T01:41:26.550Z,91.90
2019-03-26T01:43:55.809Z,92.10
2019-03-26T01:46:24.125Z,92.10
2019-03-26T01:48:52.309Z,92.30
2019-03-26T01:51:20.632Z,92.30
2019-03-26T01:53:48.960Z,92.30
2019-03-26T01:56:17.352Z,92.30
2019-03-26T01:58:45.622Z,92.90
2019-03-26T02:01:13.843Z,92.60
2019-03-26T02:03:42.093Z,93.20
2019-03-26T02:06:10.422Z,92.80
2019-03-26T02:08:38.696Z,92.80
2019-03-26T02:11:07.008Z,93.00
2019-03-26T02:13:35.326Z,93.00
2019-03-26T02:16:03.683Z,93.10
2019-03-26T02:18:32.244Z,93.20
2019-03-26T02:21:00.909Z,93.20
2019-03-26T02:23:29.142Z,93.30
2019-03-26T02:26:01.276Z,93.60
2019-03-26T02:28:29.575Z,93.70
2019-03-26T02:30:57.840Z,93.80
2019-03-26T02:33:26.153Z,93.80
2019-03-26T02:35:54.432Z,94.00
2019-03-26T02:38:23.577Z,93.90
2019-03-26T02:40:52.012Z,93.90
2019-03-26T02:43:20.385Z,94.40
2019-03-26T02:45:48.790Z,94.00
2019-03-26T02:48:17.127Z,94.10
2019-03-26T02:50:45.433Z,94.20
2019-03-26T02:53:13.669Z,94.30
2019-03-26T02:55:41.965Z,94.40
2019-03-26T02:58:13.258Z,94.40
2019-03-26T03:00:41.665Z,94.20
2019-03-26T03:03:10.036Z,94.30
2019-03-26T03:05:38.583Z,94.40
2019-03-26T03:08:09.168Z,94.40
2019-03-26T03:10:37.810Z,94.30
2019-03-26T03:13:06.236Z,94.40
2019-03-26T03:15:34.622Z,94.20
2019-03-26T03:18:02.915Z,94.30
2019-03-26T03:20:31.305Z,94.20
2019-03-26T03:23:00.242Z,93.80
2019-03-26T03:25:28.474Z,94.10
2019-03-26T03:27:56.931Z,94.30
2019-03-26T03:30:25.277Z,94.20
2019-03-26T03:32:53.497Z,94.10
2019-03-26T03:35:21.711Z,94.20
2019-03-26T03:37:50.053Z,94.20
2019-03-26T03:40:18.367Z,94.50
2019-03-26T03:42:46.616Z,94.30
2019-03-26T03:45:20.495Z,94.10
2019-03-26T03:47:48.922Z,94.40
2019-03-26T03:50:17.311Z,94.40
2019-03-26T03:52:46.362Z,94.20
2019-03-26T03:55:14.526Z,94.30
2019-03-26T03:57:44.304Z,94.40
2019-03-26T04:00:31.644Z,94.30
2019-03-26T04:03:00.004Z,94.00
2019-03-26T04:05:28.385Z,94.40
2019-03-26T04:07:56.837Z,93.90
2019-03-26T04:10:25.142Z,93.90
2019-03-26T04:12:53.516Z,94.10
2019-03-26T04:15:21.964Z,94.10
2019-03-26T04:17:50.280Z,94.60
2019-03-26T04:20:18.533Z,94.30
2019-03-26T04:22:46.858Z,94.00
2019-03-26T04:25:27.108Z,93.80
2019-03-26T04:27:58.148Z,94.20
2019-03-26T04:30:30.666Z,94.20
2019-03-26T04:33:01.638Z,94.40
2019-03-26T04:35:32.544Z,94.40
2019-03-26T04:38:03.391Z,94.30
2019-03-26T04:40:34.214Z,94.30
2019-03-26T04:43:05.194Z,94.40
2019-03-26T04:45:36.135Z,94.40
2019-03-26T04:48:07.283Z,94.60
2019-03-26T04:50:38.163Z,94.60
2019-03-26T04:53:09.221Z,94.50
2019-03-26T04:55:40.155Z,94.60
2019-03-26T04:58:11.255Z,94.70
2019-03-26T05:00:44.804Z,94.20
2019-03-26T05:03:15.767Z,94.40
2019-03-26T05:05:46.703Z,94.30
2019-03-26T05:08:17.679Z,94.30
2019-03-26T05:10:49.476Z,94.40
2019-03-26T05:13:20.524Z,94.30
2019-03-26T05:15:51.765Z,94.50
2019-03-26T05:18:22.763Z,94.60
2019-03-26T05:20:53.650Z,94.60
2019-03-26T05:23:24.634Z,94.60
2019-03-26T05:25:55.622Z,94.70
2019-03-26T05:28:26.565Z,94.80
2019-03-26T05:30:57.507Z,94.60
2019-03-26T05:33:28.639Z,94.40
2019-03-26T05:35:59.605Z,94.20
2019-03-26T05:38:30.680Z,94.30
2019-03-26T05:41:01.715Z,94.20
2019-03-26T05:43:32.707Z,94.50
2019-03-26T05:46:04.163Z,94.40
2019-03-26T05:48:35.340Z,94.60
2019-03-26T05:51:06.342Z,94.60
2019-03-26T05:53:37.590Z,94.40
2019-03-26T05:56:08.645Z,94.30
2019-03-26T05:58:39.666Z,94.50
2019-03-26T06:01:10.933Z,94.30
2019-03-26T06:03:42.146Z,94.00
2019-03-26T06:06:13.286Z,94.10
2019-03-26T06:08:44.458Z,94.30
2019-03-26T06:11:15.557Z,94.20
2019-03-26T06:13:46.590Z,93.90
2019-03-26T06:16:17.593Z,93.80
2019-03-26T06:18:50.032Z,93.90
2019-03-26T06:21:20.925Z,93.90
2019-03-26T06:23:53.697Z,93.80
2019-03-26T06:26:24.858Z,93.90
2019-03-26T06:29:02.270Z,93.60
2019-03-26T06:31:33.309Z,93.50
2019-03-26T06:34:05.893Z,93.30
2019-03-26T06:36:37.071Z,93.40
2019-03-26T06:39:09.689Z,93.50
2019-03-26T06:41:40.691Z,93.40
2019-03-26T06:44:11.907Z,93.00
2019-03-26T06:46:42.806Z,92.60
2019-03-26T06:49:14.126Z,92.10
2019-03-26T06:51:45.151Z,91.80
2019-03-26T06:54:16.455Z,91.90
2019-03-26T06:56:47.721Z,92.00
2019-03-26T06:59:18.942Z,91.90
2019-03-26T07:01:50.057Z,91.50
2019-03-26T07:04:21.174Z,91.60
2019-03-26T07:06:52.120Z,91.50
2019-03-26T07:09:23.217Z,91.40
2019-03-26T07:11:54.233Z,91.00
2019-03-26T07:14:25.412Z,90.90
2019-03-26T07:16:56.488Z,90.90
2019-03-26T07:19:27.523Z,90.60
2019-03-26T07:21:58.573Z,91.00
2019-03-26T07:24:29.822Z,90.60
2019-03-26T07:27:00.899Z,90.40
2019-03-26T07:29:31.904Z,90.40
2019-03-26T07:32:03.017Z,90.40
2019-03-26T07:34:34.178Z,90.40
2019-03-26T07:37:05.244Z,90.00
2019-03-26T07:39:38.999Z,90.20
2019-03-26T07:42:09.240Z,89.70
2019-03-26T07:44:40.422Z,89.30
2019-03-26T07:47:11.446Z,89.40
2019-03-26T07:49:49.080Z,89.90
2019-03-26T07:52:20.162Z,89.20
2019-03-26T07:54:52.235Z,88.80
2019-03-26T07:57:23.289Z,88.10
2019-03-26T07:59:54.309Z,88.70
2019-03-26T08:02:25.426Z,88.30
2019-03-26T08:04:56.691Z,88.20
2019-03-26T08:07:27.649Z,89.20
2019-03-26T08:09:58.681Z,88.70
2019-03-26T08:12:32.619Z,89.50
2019-03-26T08:15:03.829Z,89.70
2019-03-26T08:17:35.088Z,90.10
2019-03-26T08:20:06.754Z,89.00
2019-03-26T08:22:38.006Z,87.80
2019-03-26T08:25:09.469Z,87.20
2019-03-26T08:27:40.763Z,85.10
2019-03-26T08:30:12.044Z,83.70
2019-03-26T08:32:43.072Z,83.80
2019-03-26T08:35:15.503Z,85.00
2019-03-26T08:37:46.589Z,84.70
2019-03-26T08:40:17.940Z,84.20
2019-03-26T08:42:48.996Z,84.20
2019-03-26T08:45:20.238Z,83.80
2019-03-26T08:47:51.334Z,83.80
2019-03-26T08:50:22.748Z,83.60
2019-03-26T08:52:53.772Z,83.10
2019-03-26T08:55:24.867Z,82.70
2019-03-26T08:57:55.884Z,82.00
2019-03-26T09:00:26.965Z,79.50
2019-03-26T09:02:57.922Z,79.40
2019-03-26T09:05:29.205Z,79.50
2019-03-26T09:08:00.320Z,78.90
2019-03-26T09:10:31.505Z,77.10
2019-03-26T09:13:02.639Z,76.20
2019-03-26T09:15:33.848Z,76.10
2019-03-26T09:18:05.024Z,75.60
2019-03-26T09:20:35.976Z,75.20
2019-03-26T09:23:07.015Z,75.00
2019-03-26T09:25:38.052Z,76.00
2019-03-26T09:28:09.049Z,73.40
2019-03-26T09:30:40.176Z,70.20
2019-03-26T09:33:11.269Z,69.40
2019-03-26T09:35:42.371Z,69.30
2019-03-26T09:38:14.335Z,69.50
2019-03-26T09:40:45.576Z,68.80
2019-03-26T09:43:16.700Z,68.50
2019-03-26T09:45:47.921Z,67.60
2019-03-26T09:48:19.101Z,67.70
2019-03-26T09:50:50.256Z,66.10
2019-03-26T09:53:21.449Z,66.50
2019-03-26T09:55:52.962Z,65.50
2019-03-26T09:58:24.206Z,65.60
2019-03-26T10:00:55.310Z,64.30
2019-03-26T10:03:26.416Z,63.90
2019-03-26T10:05:58.350Z,62.90
2019-03-26T10:08:29.558Z,63.20
2019-03-26T10:11:00.989Z,63.90
2019-03-26T10:13:32.027Z,63.70
2019-03-26T10:16:03.103Z,62.50
2019-03-26T10:18:34.221Z,62.90
2019-03-26T10:21:05.499Z,62.60
2019-03-26T10:23:36.563Z,63.70
2019-03-26T10:26:07.683Z,61.70
2019-03-26T10:28:38.678Z,60.90
2019-03-26T10:31:09.835Z,61.10
2019-03-26T10:33:40.943Z,60.90
2019-03-26T10:36:12.085Z,60.70
2019-03-26T10:38:43.100Z,59.90
2019-03-26T10:41:14.215Z,59.60
2019-03-26T10:43:45.230Z,59.80
2019-03-26T10:46:16.796Z,60.10
2019-03-26T10:48:47.818Z,60.10
2019-03-26T10:51:18.992Z,60.30
2019-03-26T10:53:50.067Z,60.40
2019-03-26T10:56:21.206Z,60.70
2019-03-26T10:58:52.289Z,59.70
2019-03-26T11:01:24.425Z,60.00
2019-03-26T11:03:55.464Z,59.70
2019-03-26T11:06:29.854Z,60.60
2019-03-26T11:09:00.974Z,60.60
2019-03-26T11:11:33.472Z,59.90
2019-03-26T11:14:04.482Z,59.40
2019-03-26T11:16:35.483Z,60.00
2019-03-26T11:19:06.500Z,60.20
2019-03-26T11:21:39.135Z,61.10
2019-03-26T11:24:10.216Z,61.30
2019-03-26T11:26:41.245Z,60.50
2019-03-26T11:29:12.263Z,60.10
2019-03-26T11:31:43.344Z,60.60
2019-03-26T11:34:14.320Z,60.40
2019-03-26T11:36:45.516Z,60.10
2019-03-26T11:39:16.495Z,60.60
2019-03-26T11:41:47.508Z,60.50
2019-03-26T11:44:18.421Z,60.60
2019-03-26T11:46:51.854Z,59.40
2019-03-26T11:49:22.958Z,60.30
2019-03-26T11:51:57.347Z,59.50
2019-03-26T11:54:28.344Z,58.60
2019-03-26T11:57:00.675Z,57.90
2019-03-26T11:59:31.880Z,57.80
2019-03-26T12:02:03.651Z,57.30
2019-03-26T12:04:34.693Z,56.90
2019-03-26T12:07:06.847Z,57.40
2019-03-26T12:09:46.271Z,57.10
2019-03-26T12:12:10.755Z,57.40
2019-03-26T12:14:41.833Z,57.20
2019-03-26T12:17:15.082Z,57.50
2019-03-26T12:19:46.264Z,59.00
2019-03-26T12:22:17.488Z,58.20
2019-03-26T12:24:48.622Z,57.70
2019-03-26T12:27:19.714Z,57.30
2019-03-26T12:29:54.747Z,57.00
2019-03-26T12:32:27.618Z,57.00
2019-03-26T12:34:58.654Z,56.80
2019-03-26T12:37:29.906Z,56.10
2019-03-26T12:40:01.164Z,55.40
2019-03-26T12:42:32.332Z,55.40
2019-03-26T12:45:06.658Z,55.60
2019-03-26T12:47:36.402Z,55.50
2019-03-26T12:50:07.815Z,55.30
2019-03-26T12:52:39.568Z,55.40
2019-03-26T12:55:10.874Z,55.30
2019-03-26T12:57:41.945Z,56.60
2019-03-26T13:00:13.105Z,58.10
2019-03-26T13:02:44.031Z,57.70
2019-03-26T13:05:15.116Z,57.60
2019-03-26T13:07:46.339Z,58.80
2019-03-26T13:10:18.253Z,59.30
2019-03-26T13:12:49.369Z,58.90
2019-03-26T13:15:20.478Z,58.60
2019-03-26T13:17:52.002Z,58.50
2019-03-26T13:20:23.251Z,58.60
2019-03-26T13:22:54.480Z,58.30
2019-03-26T13:25:25.506Z,56.80
2019-03-26T13:27:56.507Z,56.80
2019-03-26T13:30:27.545Z,56.50
2019-03-26T13:32:58.554Z,55.40
2019-03-26T13:35:29.623Z,56.30
2019-03-26T13:38:00.691Z,57.60
2019-03-26T13:40:32.291Z,57.00
2019-03-26T13:43:03.361Z,57.10
2019-03-26T13:45:34.600Z,56.40
2019-03-26T13:48:05.591Z,56.70
2019-03-26T13:50:36.702Z,56.60
2019-03-26T13:53:08.136Z,56.80
2019-03-26T13:55:39.300Z,57.50
2019-03-26T13:58:10.390Z,56.80
2019-03-26T14:00:41.779Z,57.10
2019-03-26T14:03:13.044Z,57.30
2019-03-26T14:05:44.250Z,57.10
2019-03-26T14:08:15.328Z,56.50
2019-03-26T14:10:46.635Z,56.30
2019-03-26T14:13:18.382Z,56.40
2019-03-26T14:15:50.570Z,56.10
2019-03-26T14:18:21.799Z,56.20
2019-03-26T14:20:53.066Z,56.20
2019-03-26T14:23:24.098Z,56.50
2019-03-26T14:25:55.137Z,56.20
2019-03-26T14:28:26.286Z,56.10
2019-03-26T14:30:57.583Z,56.50
2019-03-26T14:33:28.645Z,56.50
2019-03-26T14:35:59.647Z,55.90
2019-03-26T14:38:30.864Z,55.00
2019-03-26T14:41:01.939Z,55.40
2019-03-26T14:43:33.196Z,54.00
2019-03-26T14:46:04.354Z,53.50
2019-03-26T14:48:35.561Z,53.20
2019-03-26T14:51:07.497Z,51.90
2019-03-26T14:53:39.283Z,51.90
2019-03-26T14:56:10.265Z,51.60
2019-03-26T14:58:41.528Z,51.80
2019-03-26T15:01:12.670Z,51.00
2019-03-26T15:03:44.354Z,51.30
2019-03-26T15:06:15.479Z,51.80
2019-03-26T15:08:48.057Z,51.00
2019-03-26T15:11:19.121Z,51.60
2019-03-26T15:13:51.030Z,51.50
2019-03-26T15:16:22.108Z,51.60
2019-03-26T15:18:53.368Z,51.60
2019-03-26T15:21:24.279Z,51.80
2019-03-26T15:23:55.416Z,50.50
2019-03-26T15:26:26.486Z,50.00
2019-03-26T15:28:58.003Z,50.30
2019-03-26T15:31:29.048Z,50.30
2019-03-26T15:34:02.181Z,51.00
2019-03-26T15:36:32.941Z,51.90
2019-03-26T15:39:05.623Z,52.80
2019-03-26T15:41:37.172Z,53.00
2019-03-26T15:44:08.618Z,53.40
2019-03-26T15:46:39.833Z,53.50
2019-03-26T15:49:11.043Z,53.80
2019-03-26T15:51:42.345Z,54.40
2019-03-26T15:54:13.466Z,54.90
2019-03-26T15:56:44.577Z,54.00
2019-03-26T15:59:15.856Z,54.20
2019-03-26T16:01:47.856Z,54.40
2019-03-26T16:04:18.978Z,54.30
2019-03-26T16:06:50.186Z,54.60
2019-03-26T16:09:21.540Z,54.90
2019-03-26T16:12:02.000Z,54.30
2019-03-26T16:14:33.086Z,53.40
2019-03-26T16:17:04.564Z,53.00
2019-03-26T16:19:36.654Z,52.90
2019-03-26T16:22:08.513Z,52.70
2019-03-26T16:24:39.742Z,52.70
2019-03-26T16:27:14.456Z,52.80
2019-03-26T16:29:45.546Z,52.60
2019-03-26T16:32:16.558Z,53.00
2019-03-26T16:34:47.650Z,53.60
2019-03-26T16:37:18.807Z,53.80
2019-03-26T16:39:49.879Z,54.00
2019-03-26T16:42:24.779Z,54.30
2019-03-26T16:44:56.025Z,54.60
2019-03-26T16:47:27.025Z,54.90
2019-03-26T16:49:58.153Z,54.70
2019-03-26T16:52:29.107Z,55.00
2019-03-26T16:55:00.352Z,55.30
2019-03-26T16:57:32.867Z,55.70
2019-03-26T17:00:04.167Z,55.90
2019-03-26T17:02:35.488Z,56.10
2019-03-26T17:05:07.426Z,56.60
2019-03-26T17:07:38.670Z,56.60
2019-03-26T17:10:10.160Z,56.70
2019-03-26T17:12:41.238Z,57.00
2019-03-26T17:15:12.400Z,57.20
2019-03-26T17:17:43.768Z,57.30
2019-03-26T17:20:14.906Z,57.60
2019-03-26T17:22:46.007Z,57.80
2019-03-26T17:25:17.049Z,58.60
2019-03-26T17:27:48.040Z,58.30
2019-03-26T17:30:19.387Z,58.50
2019-03-26T17:32:50.538Z,58.70
2019-03-26T17:35:22.445Z,59.00
2019-03-26T17:37:59.603Z,59.10
2019-03-26T17:40:27.051Z,59.30
2019-03-26T17:42:58.168Z,59.40
2019-03-26T17:45:29.300Z,59.70
2019-03-26T17:48:00.573Z,59.90
2019-03-26T17:50:32.982Z,60.00
2019-03-26T17:53:03.868Z,60.00
2019-03-26T17:55:35.453Z,60.40
2019-03-26T17:58:06.579Z,60.60
2019-03-26T18:00:43.217Z,60.30
2019-03-26T18:03:25.646Z,60.40
2019-03-26T18:05:48.076Z,61.10
2019-03-26T18:08:19.229Z,61.10
2019-03-26T18:10:52.975Z,60.80
2019-03-26T18:13:24.128Z,60.80
2019-03-26T18:15:55.161Z,60.90
2019-03-26T18:18:27.685Z,61.30
2019-03-26T18:21:00.426Z,61.60
2019-03-26T18:23:34.576Z,62.10
2019-03-26T18:26:06.447Z,62.30
2019-03-26T18:28:37.571Z,62.70
2019-03-26T18:31:08.651Z,63.20
2019-03-26T18:33:39.727Z,63.00
2019-03-26T18:36:10.833Z,63.30
2019-03-26T18:38:42.032Z,63.50
2019-03-26T18:41:15.210Z,63.50
2019-03-26T18:44:02.461Z,63.70
2019-03-26T18:46:33.793Z,63.90
2019-03-26T18:49:04.984Z,63.80
2019-03-26T18:51:36.332Z,63.80
2019-03-26T18:54:07.750Z,64.40
2019-03-26T18:56:39.528Z,64.70
2019-03-26T18:59:11.477Z,65.00
2019-03-26T19:01:42.836Z,65.50
2019-03-26T19:04:14.794Z,66.00
2019-03-26T19:06:46.013Z,66.90
2019-03-26T19:09:17.092Z,66.20
2019-03-26T19:11:48.120Z,66.40
2019-03-26T19:14:24.770Z,66.80
2019-03-26T19:17:01.847Z,67.10
2019-03-26T19:19:36.536Z,67.20
2019-03-26T19:22:09.714Z,67.40
2019-03-26T19:24:42.571Z,67.40
2019-03-26T19:27:16.714Z,67.30
2019-03-26T19:29:49.610Z,67.50
2019-03-26T19:32:22.798Z,67.90
2019-03-26T19:34:54.157Z,68.00
2019-03-26T19:37:25.402Z,68.20
2019-03-26T19:39:56.529Z,68.50
2019-03-26T19:42:27.551Z,68.70
2019-03-26T19:44:58.694Z,68.70
2019-03-26T19:47:30.045Z,68.70
2019-03-26T19:50:01.073Z,68.70
2019-03-26T19:52:32.337Z,68.90
2019-03-26T19:55:07.023Z,69.70
2019-03-26T19:57:38.135Z,68.60
2019-03-26T20:00:10.733Z,68.50
2019-03-26T20:02:42.008Z,68.80
2019-03-26T20:05:13.066Z,68.70
2019-03-26T20:07:44.170Z,68.70
2019-03-26T20:10:15.628Z,68.90
2019-03-26T20:12:46.631Z,70.20
2019-03-26T20:15:18.224Z,69.30
2019-03-26T20:17:49.806Z,69.40
2019-03-26T20:20:21.091Z,69.50
2019-03-26T20:22:52.298Z,70.00
2019-03-26T20:25:23.875Z,70.00
2019-03-26T20:27:56.208Z,70.30
2019-03-26T20:30:27.247Z,70.50
2019-03-26T20:32:58.686Z,70.60
2019-03-26T20:35:29.884Z,71.10
2019-03-26T20:38:01.100Z,71.00
2019-03-26T20:40:32.109Z,71.10
2019-03-26T20:43:03.013Z,71.30
2019-03-26T20:45:36.757Z,71.50
2019-03-26T20:48:08.480Z,71.30
2019-03-26T20:50:39.680Z,71.50
2019-03-26T20:53:10.846Z,71.70
2019-03-26T20:55:53.576Z,71.90
2019-03-26T20:58:15.255Z,72.00
2019-03-26T21:00:46.156Z,72.30
2019-03-26T21:03:19.685Z,72.50
2019-03-26T21:05:50.683Z,72.60
2019-03-26T21:08:22.003Z,72.90
2019-03-26T21:10:53.081Z,72.90
2019-03-26T21:13:24.185Z,72.80
2019-03-26T21:15:57.476Z,72.80
2019-03-26T21:18:27.944Z,72.80
2019-03-26T21:20:59.418Z,73.10
2019-03-26T21:23:30.645Z,73.10
2019-03-26T21:26:01.795Z,72.80
2019-03-26T21:28:33.877Z,72.80
2019-03-26T21:31:04.994Z,72.70
2019-03-26T21:33:35.949Z,73.20
2019-03-26T21:36:06.884Z,72.90
2019-03-26T21:38:39.075Z,73.10
2019-03-26T21:41:10.437Z,73.20
2019-03-26T21:43:41.606Z,73.00
2019-03-26T21:46:12.796Z,72.60
2019-03-26T21:48:46.246Z,73.00
2019-03-26T21:51:17.177Z,73.00
2019-03-26T21:53:48.272Z,73.10
2019-03-26T21:56:20.129Z,73.00
2019-03-26T21:58:51.126Z,73.00
2019-03-26T22:01:22.393Z,73.10
2019-03-26T22:03:53.443Z,73.30
2019-03-26T22:06:24.646Z,73.50
2019-03-26T22:08:55.650Z,73.50
2019-03-26T22:11:27.296Z,74.00
2019-03-26T22:13:58.368Z,73.90
2019-03-26T22:16:29.369Z,74.20
2019-03-26T22:19:00.600Z,73.80
2019-03-26T22:21:31.623Z,73.70
2019-03-26T22:24:05.829Z,73.50
2019-03-26T22:26:36.882Z,73.20
2019-03-26T22:29:07.968Z,73.00
2019-03-26T22:31:39.622Z,73.60
2019-03-26T22:34:10.635Z,74.50
2019-03-26T22:36:41.742Z,74.40
2019-03-26T22:39:12.800Z,74.30
2019-03-26T22:41:43.969Z,74.80
2019-03-26T22:44:16.009Z,75.00
2019-03-26T22:46:46.991Z,75.70
2019-03-26T22:49:18.108Z,75.90
2019-03-26T22:51:49.199Z,76.00
2019-03-26T22:54:20.243Z,76.10
2019-03-26T22:56:52.354Z,76.00
2019-03-26T22:59:23.490Z,76.10
2019-03-26T23:01:54.479Z,75.60
2019-03-26T23:04:25.505Z,75.50
2019-03-26T23:06:56.602Z,75.10
2019-03-26T23:09:27.730Z,74.70
2019-03-26T23:11:58.863Z,74.80
2019-03-26T23:14:29.859Z,75.10
2019-03-26T23:17:01.053Z,75.10
2019-03-26T23:19:32.342Z,74.90
2019-03-26T23:22:04.282Z,75.10
2019-03-26T23:24:35.436Z,75.20
2019-03-26T23:27:06.520Z,76.20
2019-03-26T23:29:37.593Z,76.50
2019-03-26T23:32:08.629Z,76.50
2019-03-26T23:34:39.940Z,75.90
2019-03-26T23:37:10.958Z,76.20
2019-03-26T23:39:41.970Z,76.30
2019-03-26T23:42:14.176Z,76.50
2019-03-26T23:44:57.417Z,76.30
2019-03-26T23:47:17.915Z,76.20
2019-03-26T23:49:49.239Z,77.00
2019-03-26T23:52:20.307Z,77.00
2019-03-26T23:54:51.289Z,76.80
2019-03-26T23:57:22.329Z,77.20
2019-03-26T23:59:53.550Z,77.60
